Terminal Aerodrome Forecast
Issued by NWS

Home | Current Version | Previous Version | Text Only | Print | Product List | Glossary On
Versions: 1 2 3 4 5 6 7 8 9 10 11 12 13
000
FTAK31 PAJN 252321
TAFAKT
TAF
PAKT 252321Z 2600/2624 32015G23KT P6SM FEW100
     FM260100 32010KT P6SM SCT200
     FM261000 32010KT 6SM BR BKN009
     FM261700 32010KT 6SM BR BKN015
     FM262100 32014KT 6SM BR SCT010 OVC020
      AMD LTD TO CLD VIS AND WIND 2606/2615=

USA.gov is the U.S. government's official web portal to all federal, state and local government web resources and services.